sensor_id;sensor_type;location;lat;lon;timestamp;P1;durP1;ratioP1;P2;durP2;ratioP2
3949;SDS011;53057;50.988;6.314;2023-12-20T00:10:00;43.13;;;22.90;;
3949;SDS011;53057;50.988;6.314;2023-12-20T00:16:42;35.80;;;21.60;;
3949;SDS011;53057;50.988;6.314;2023-12-20T00:20:38;31.83;;;18.87;;
3949;SDS011;53057;50.988;6.314;2023-12-20T00:26:52;41.50;;;20.10;;
3949;SDS011;53057;50.988;6.314;2023-12-20T00:30:15;42.00;;;22.33;;
3949;SDS011;53057;50.988;6.314;2023-12-20T00:35:46;50.97;;;23.50;;
3949;SDS011;53057;50.988;6.314;2023-12-20T00:38:15;52.40;;;26.47;;
3949;SDS011;53057;50.988;6.314;2023-12-20T00:40:44;62.67;;;25.47;;
3949;SDS011;53057;50.988;6.314;2023-12-20T00:43:28;54.57;;;26.47;;
3949;SDS011;53057;50.988;6.314;2023-12-20T00:46:02;59.07;;;27.53;;
3949;SDS011;53057;50.988;6.314;2023-12-20T00:48:34;65.67;;;29.17;;
3949;SDS011;53057;50.988;6.314;2023-12-20T00:51:06;59.97;;;29.40;;
3949;SDS011;53057;50.988;6.314;2023-12-20T00:56:29;66.47;;;20.17;;
3949;SDS011;53057;50.988;6.314;2023-12-20T00:59:10;29.00;;;10.87;;
3949;SDS011;53057;50.988;6.314;2023-12-20T01:01:47;29.60;;;13.53;;
3949;SDS011;53057;50.988;6.314;2023-12-20T01:05:11;31.53;;;14.00;;
3949;SDS011;53057;50.988;6.314;2023-12-20T01:08:23;32.77;;;13.27;;
3949;SDS011;53057;50.988;6.314;2023-12-20T01:11:19;24.47;;;12.43;;
3949;SDS011;53057;50.988;6.314;2023-12-20T01:17:01;37.10;;;11.27;;
3949;SDS011;53057;50.988;6.314;2023-12-20T01:19:43;28.40;;;10.53;;
3949;SDS011;53057;50.988;6.314;2023-12-20T01:22:42;32.83;;;8.70;;
3949;SDS011;53057;50.988;6.314;2023-12-20T01:25:20;19.77;;;7.90;;
3949;SDS011;53057;50.988;6.314;2023-12-20T01:27:53;28.00;;;9.40;;
3949;SDS011;53057;50.988;6.314;2023-12-20T01:30:21;21.90;;;5.00;;
3949;SDS011;53057;50.988;6.314;2023-12-20T01:33:36;17.73;;;6.97;;
3949;SDS011;53057;50.988;6.314;2023-12-20T01:36:32;29.10;;;7.30;;
3949;SDS011;53057;50.988;6.314;2023-12-20T01:38:59;35.43;;;5.60;;
3949;SDS011;53057;50.988;6.314;2023-12-20T01:41:26;20.43;;;5.83;;
3949;SDS011;53057;50.988;6.314;2023-12-20T01:44:00;32.27;;;6.17;;
3949;SDS011;53057;50.988;6.314;2023-12-20T01:46:27;18.33;;;5.63;;
3949;SDS011;53057;50.988;6.314;2023-12-20T01:48:57;10.57;;;4.30;;
3949;SDS011;53057;50.988;6.314;2023-12-20T01:51:24;13.63;;;4.30;;
3949;SDS011;53057;50.988;6.314;2023-12-20T01:54:02;18.27;;;5.27;;
3949;SDS011;53057;50.988;6.314;2023-12-20T01:56:31;20.77;;;6.00;;
3949;SDS011;53057;50.988;6.314;2023-12-20T01:59:01;20.23;;;4.50;;
3949;SDS011;53057;50.988;6.314;2023-12-20T02:01:28;29.10;;;5.30;;
3949;SDS011;53057;50.988;6.314;2023-12-20T02:03:55;17.03;;;4.10;;
3949;SDS011;53057;50.988;6.314;2023-12-20T02:06:26;26.20;;;4.97;;
3949;SDS011;53057;50.988;6.314;2023-12-20T02:08:56;26.03;;;5.83;;
3949;SDS011;53057;50.988;6.314;2023-12-20T02:11:23;16.83;;;5.47;;
3949;SDS011;53057;50.988;6.314;2023-12-20T02:13:51;14.57;;;3.93;;
3949;SDS011;53057;50.988;6.314;2023-12-20T02:16:19;9.10;;;3.30;;
3949;SDS011;53057;50.988;6.314;2023-12-20T02:18:50;16.37;;;3.87;;
3949;SDS011;53057;50.988;6.314;2023-12-20T02:21:25;27.07;;;4.60;;
3949;SDS011;53057;50.988;6.314;2023-12-20T02:23:58;33.17;;;5.80;;
3949;SDS011;53057;50.988;6.314;2023-12-20T02:26:31;14.70;;;4.17;;
3949;SDS011;53057;50.988;6.314;2023-12-20T02:28:58;28.50;;;4.90;;
3949;SDS011;53057;50.988;6.314;2023-12-20T02:31:25;36.57;;;6.17;;
3949;SDS011;53057;50.988;6.314;2023-12-20T02:33:53;17.40;;;4.20;;
3949;SDS011;53057;50.988;6.314;2023-12-20T02:36:20;17.03;;;4.10;;
3949;SDS011;53057;50.988;6.314;2023-12-20T02:38:46;40.47;;;4.83;;
3949;SDS011;53057;50.988;6.314;2023-12-20T02:41:14;19.93;;;4.50;;
3949;SDS011;53057;50.988;6.314;2023-12-20T02:43:44;28.70;;;6.10;;
3949;SDS011;53057;50.988;6.314;2023-12-20T02:46:11;21.57;;;4.50;;
3949;SDS011;53057;50.988;6.314;2023-12-20T02:48:39;35.50;;;5.70;;
3949;SDS011;53057;50.988;6.314;2023-12-20T02:51:06;25.50;;;5.50;;
3949;SDS011;53057;50.988;6.314;2023-12-20T02:53:33;22.23;;;3.93;;
3949;SDS011;53057;50.988;6.314;2023-12-20T02:56:00;20.63;;;4.73;;
3949;SDS011;53057;50.988;6.314;2023-12-20T02:58:28;30.43;;;6.33;;
3949;SDS011;53057;50.988;6.314;2023-12-20T03:00:57;21.63;;;5.83;;
3949;SDS011;53057;50.988;6.314;2023-12-20T03:03:29;10.23;;;4.63;;
3949;SDS011;53057;50.988;6.314;2023-12-20T03:05:59;13.67;;;5.10;;
3949;SDS011;53057;50.988;6.314;2023-12-20T03:08:26;15.83;;;4.57;;
3949;SDS011;53057;50.988;6.314;2023-12-20T03:10:59;24.23;;;4.80;;
3949;SDS011;53057;50.988;6.314;2023-12-20T03:13:26;14.93;;;5.00;;
3949;SDS011;53057;50.988;6.314;2023-12-20T03:15:55;31.27;;;5.07;;
3949;SDS011;53057;50.988;6.314;2023-12-20T03:18:24;23.33;;;6.07;;
3949;SDS011;53057;50.988;6.314;2023-12-20T03:20:51;20.83;;;4.87;;
3949;SDS011;53057;50.988;6.314;2023-12-20T03:23:19;20.57;;;7.03;;
3949;SDS011;53057;50.988;6.314;2023-12-20T03:26:10;32.20;;;6.10;;
3949;SDS011;53057;50.988;6.314;2023-12-20T03:28:40;30.47;;;7.13;;
3949;SDS011;53057;50.988;6.314;2023-12-20T03:31:10;18.00;;;5.70;;
3949;SDS011;53057;50.988;6.314;2023-12-20T03:33:45;40.23;;;7.90;;
3949;SDS011;53057;50.988;6.314;2023-12-20T03:36:14;27.33;;;7.43;;
3949;SDS011;53057;50.988;6.314;2023-12-20T03:38:47;23.67;;;6.10;;
3949;SDS011;53057;50.988;6.314;2023-12-20T03:41:15;32.67;;;7.97;;
3949;SDS011;53057;50.988;6.314;2023-12-20T03:43:47;16.33;;;7.30;;
3949;SDS011;53057;50.988;6.314;2023-12-20T03:46:15;21.00;;;8.03;;
3949;SDS011;53057;50.988;6.314;2023-12-20T03:48:44;21.50;;;9.13;;
3949;SDS011;53057;50.988;6.314;2023-12-20T03:51:16;20.13;;;7.10;;
3949;SDS011;53057;50.988;6.314;2023-12-20T03:53:47;27.43;;;8.20;;
3949;SDS011;53057;50.988;6.314;2023-12-20T03:56:15;26.73;;;6.73;;
3949;SDS011;53057;50.988;6.314;2023-12-20T03:58:58;33.40;;;8.60;;
3949;SDS011;53057;50.988;6.314;2023-12-20T04:01:25;17.80;;;6.57;;
3949;SDS011;53057;50.988;6.314;2023-12-20T04:03:54;37.97;;;6.83;;
3949;SDS011;53057;50.988;6.314;2023-12-20T04:06:23;29.30;;;6.30;;
3949;SDS011;53057;50.988;6.314;2023-12-20T04:08:51;28.47;;;8.10;;
3949;SDS011;53057;50.988;6.314;2023-12-20T04:11:21;23.97;;;6.23;;
3949;SDS011;53057;50.988;6.314;2023-12-20T04:13:49;22.03;;;6.10;;
3949;SDS011;53057;50.988;6.314;2023-12-20T04:16:19;16.43;;;5.40;;
3949;SDS011;53057;50.988;6.314;2023-12-20T04:18:47;29.37;;;7.30;;
3949;SDS011;53057;50.988;6.314;2023-12-20T04:21:14;15.80;;;5.53;;
3949;SDS011;53057;50.988;6.314;2023-12-20T04:23:41;32.37;;;7.20;;
3949;SDS011;53057;50.988;6.314;2023-12-20T04:26:22;20.00;;;7.00;;
3949;SDS011;53057;50.988;6.314;2023-12-20T04:29:01;31.63;;;7.10;;
3949;SDS011;53057;50.988;6.314;2023-12-20T04:31:30;36.70;;;7.10;;
3949;SDS011;53057;50.988;6.314;2023-12-20T04:34:03;30.60;;;7.60;;
3949;SDS011;53057;50.988;6.314;2023-12-20T04:36:34;33.80;;;8.13;;
3949;SDS011;53057;50.988;6.314;2023-12-20T04:39:05;29.53;;;6.80;;
3949;SDS011;53057;50.988;6.314;2023-12-20T04:41:32;31.43;;;8.27;;
3949;SDS011;53057;50.988;6.314;2023-12-20T04:47:19;26.60;;;6.70;;
3949;SDS011;53057;50.988;6.314;2023-12-20T04:53:07;32.57;;;8.60;;
3949;SDS011;53057;50.988;6.314;2023-12-20T04:58:43;21.03;;;5.17;;
3949;SDS011;53057;50.988;6.314;2023-12-20T05:01:14;24.10;;;7.27;;
3949;SDS011;53057;50.988;6.314;2023-12-20T05:03:42;13.57;;;5.63;;
3949;SDS011;53057;50.988;6.314;2023-12-20T05:06:28;22.07;;;6.53;;
3949;SDS011;53057;50.988;6.314;2023-12-20T05:08:58;28.93;;;6.50;;
3949;SDS011;53057;50.988;6.314;2023-12-20T05:11:25;34.87;;;6.90;;
3949;SDS011;53057;50.988;6.314;2023-12-20T05:14:01;38.90;;;7.07;;
3949;SDS011;53057;50.988;6.314;2023-12-20T05:16:31;37.23;;;9.27;;
3949;SDS011;53057;50.988;6.314;2023-12-20T05:19:13;33.20;;;7.10;;
3949;SDS011;53057;50.988;6.314;2023-12-20T05:21:46;28.60;;;6.83;;
3949;SDS011;53057;50.988;6.314;2023-12-20T05:24:23;26.23;;;6.07;;
3949;SDS011;53057;50.988;6.314;2023-12-20T05:27:04;22.07;;;5.40;;
3949;SDS011;53057;50.988;6.314;2023-12-20T05:29:51;30.23;;;9.30;;
3949;SDS011;53057;50.988;6.314;2023-12-20T05:32:22;26.47;;;8.00;;
3949;SDS011;53057;50.988;6.314;2023-12-20T05:38:19;26.90;;;9.87;;
3949;SDS011;53057;50.988;6.314;2023-12-20T05:41:15;26.07;;;6.70;;
3949;SDS011;53057;50.988;6.314;2023-12-20T05:44:33;38.77;;;8.27;;
3949;SDS011;53057;50.988;6.314;2023-12-20T05:47:04;21.73;;;7.30;;
3949;SDS011;53057;50.988;6.314;2023-12-20T05:49:44;21.33;;;5.33;;
3949;SDS011;53057;50.988;6.314;2023-12-20T05:52:37;13.40;;;4.40;;
3949;SDS011;53057;50.988;6.314;2023-12-20T05:58:53;25.13;;;6.03;;
3949;SDS011;53057;50.988;6.314;2023-12-20T06:01:30;28.53;;;9.83;;
3949;SDS011;53057;50.988;6.314;2023-12-20T06:04:41;18.77;;;6.80;;
3949;SDS011;53057;50.988;6.314;2023-12-20T06:07:18;18.17;;;6.07;;
3949;SDS011;53057;50.988;6.314;2023-12-20T06:10:29;15.37;;;6.43;;
3949;SDS011;53057;50.988;6.314;2023-12-20T06:16:37;28.30;;;6.73;;
3949;SDS011;53057;50.988;6.314;2023-12-20T06:19:07;39.93;;;6.70;;
3949;SDS011;53057;50.988;6.314;2023-12-20T06:21:54;31.57;;;7.47;;
3949;SDS011;53057;50.988;6.314;2023-12-20T06:24:21;25.87;;;7.97;;
3949;SDS011;53057;50.988;6.314;2023-12-20T06:26:57;20.87;;;6.83;;
3949;SDS011;53057;50.988;6.314;2023-12-20T06:29:28;23.33;;;6.40;;
3949;SDS011;53057;50.988;6.314;2023-12-20T06:32:02;15.43;;;5.93;;
3949;SDS011;53057;50.988;6.314;2023-12-20T06:34:37;37.43;;;8.53;;
3949;SDS011;53057;50.988;6.314;2023-12-20T06:37:05;22.13;;;5.80;;
3949;SDS011;53057;50.988;6.314;2023-12-20T06:39:41;19.37;;;6.50;;
3949;SDS011;53057;50.988;6.314;2023-12-20T06:45:14;21.80;;;7.00;;
3949;SDS011;53057;50.988;6.314;2023-12-20T06:47:44;27.97;;;7.40;;
3949;SDS011;53057;50.988;6.314;2023-12-20T06:50:24;24.77;;;7.83;;
3949;SDS011;53057;50.988;6.314;2023-12-20T06:52:50;22.90;;;6.17;;
3949;SDS011;53057;50.988;6.314;2023-12-20T06:55:32;14.10;;;6.93;;
3949;SDS011;53057;50.988;6.314;2023-12-20T06:58:01;30.10;;;6.30;;
3949;SDS011;53057;50.988;6.314;2023-12-20T07:00:33;28.57;;;7.03;;
3949;SDS011;53057;50.988;6.314;2023-12-20T07:03:03;21.10;;;6.50;;
3949;SDS011;53057;50.988;6.314;2023-12-20T07:05:30;17.60;;;5.63;;
3949;SDS011;53057;50.988;6.314;2023-12-20T07:07:57;19.77;;;8.13;;
3949;SDS011;53057;50.988;6.314;2023-12-20T07:10:24;24.83;;;7.30;;
3949;SDS011;53057;50.988;6.314;2023-12-20T07:13:02;32.87;;;7.73;;
3949;SDS011;53057;50.988;6.314;2023-12-20T07:15:43;27.83;;;6.90;;
3949;SDS011;53057;50.988;6.314;2023-12-20T07:18:10;18.57;;;6.57;;
3949;SDS011;53057;50.988;6.314;2023-12-20T07:21:11;28.20;;;8.10;;
3949;SDS011;53057;50.988;6.314;2023-12-20T07:23:47;40.93;;;7.60;;
3949;SDS011;53057;50.988;6.314;2023-12-20T07:26:27;25.87;;;8.83;;
3949;SDS011;53057;50.988;6.314;2023-12-20T07:29:01;46.13;;;9.03;;
3949;SDS011;53057;50.988;6.314;2023-12-20T07:31:29;12.73;;;6.03;;
3949;SDS011;53057;50.988;6.314;2023-12-20T07:34:16;21.40;;;6.60;;
3949;SDS011;53057;50.988;6.314;2023-12-20T07:37:14;14.80;;;6.43;;
3949;SDS011;53057;50.988;6.314;2023-12-20T07:40:01;28.67;;;8.57;;
3949;SDS011;53057;50.988;6.314;2023-12-20T07:45:55;28.00;;;8.63;;
3949;SDS011;53057;50.988;6.314;2023-12-20T07:48:40;34.17;;;7.60;;
3949;SDS011;53057;50.988;6.314;2023-12-20T07:51:44;25.03;;;8.23;;
3949;SDS011;53057;50.988;6.314;2023-12-20T07:54:51;30.27;;;6.87;;
3949;SDS011;53057;50.988;6.314;2023-12-20T07:57:18;31.00;;;7.97;;
3949;SDS011;53057;50.988;6.314;2023-12-20T07:59:47;17.47;;;6.90;;
3949;SDS011;53057;50.988;6.314;2023-12-20T08:02:30;20.73;;;3.90;;
3949;SDS011;53057;50.988;6.314;2023-12-20T08:04:57;22.97;;;6.60;;
3949;SDS011;53057;50.988;6.314;2023-12-20T08:07:24;22.73;;;6.53;;
3949;SDS011;53057;50.988;6.314;2023-12-20T08:10:07;18.73;;;5.90;;
3949;SDS011;53057;50.988;6.314;2023-12-20T08:12:39;25.50;;;7.10;;
3949;SDS011;53057;50.988;6.314;2023-12-20T08:15:17;18.73;;;6.23;;
3949;SDS011;53057;50.988;6.314;2023-12-20T08:17:46;21.80;;;6.70;;
3949;SDS011;53057;50.988;6.314;2023-12-20T08:20:17;19.63;;;4.57;;
3949;SDS011;53057;50.988;6.314;2023-12-20T08:23:05;22.63;;;5.93;;
3949;SDS011;53057;50.988;6.314;2023-12-20T08:25:32;16.07;;;5.00;;
3949;SDS011;53057;50.988;6.314;2023-12-20T08:28:02;25.07;;;7.00;;
3949;SDS011;53057;50.988;6.314;2023-12-20T08:30:29;14.50;;;5.90;;
3949;SDS011;53057;50.988;6.314;2023-12-20T08:32:59;28.93;;;5.60;;
3949;SDS011;53057;50.988;6.314;2023-12-20T08:35:27;21.83;;;6.73;;
3949;SDS011;53057;50.988;6.314;2023-12-20T08:37:53;11.00;;;5.67;;
3949;SDS011;53057;50.988;6.314;2023-12-20T08:40:22;26.83;;;6.70;;
3949;SDS011;53057;50.988;6.314;2023-12-20T08:42:54;25.47;;;6.23;;
3949;SDS011;53057;50.988;6.314;2023-12-20T08:45:22;16.43;;;4.53;;
3949;SDS011;53057;50.988;6.314;2023-12-20T08:47:49;23.23;;;4.70;;
3949;SDS011;53057;50.988;6.314;2023-12-20T08:50:20;22.73;;;6.43;;
3949;SDS011;53057;50.988;6.314;2023-12-20T08:52:48;17.30;;;4.90;;
3949;SDS011;53057;50.988;6.314;2023-12-20T08:55:24;22.60;;;5.83;;
3949;SDS011;53057;50.988;6.314;2023-12-20T08:57:56;22.23;;;6.33;;
3949;SDS011;53057;50.988;6.314;2023-12-20T09:00:23;23.30;;;6.07;;
3949;SDS011;53057;50.988;6.314;2023-12-20T09:02:54;16.83;;;4.80;;
3949;SDS011;53057;50.988;6.314;2023-12-20T09:05:21;17.10;;;4.20;;
3949;SDS011;53057;50.988;6.314;2023-12-20T09:07:50;16.00;;;5.27;;
3949;SDS011;53057;50.988;6.314;2023-12-20T09:10:18;23.43;;;5.93;;
3949;SDS011;53057;50.988;6.314;2023-12-20T09:12:49;23.37;;;6.00;;
3949;SDS011;53057;50.988;6.314;2023-12-20T09:15:17;21.47;;;6.47;;
3949;SDS011;53057;50.988;6.314;2023-12-20T09:17:44;10.33;;;3.63;;
3949;SDS011;53057;50.988;6.314;2023-12-20T09:20:24;21.40;;;5.00;;
3949;SDS011;53057;50.988;6.314;2023-12-20T09:22:51;21.70;;;5.60;;
3949;SDS011;53057;50.988;6.314;2023-12-20T09:25:18;19.30;;;3.90;;
3949;SDS011;53057;50.988;6.314;2023-12-20T09:27:45;18.40;;;4.83;;
3949;SDS011;53057;50.988;6.314;2023-12-20T09:30:13;17.17;;;5.53;;
3949;SDS011;53057;50.988;6.314;2023-12-20T09:32:56;13.53;;;5.20;;
3949;SDS011;53057;50.988;6.314;2023-12-20T09:35:23;16.73;;;5.53;;
3949;SDS011;53057;50.988;6.314;2023-12-20T09:37:56;13.67;;;3.90;;
3949;SDS011;53057;50.988;6.314;2023-12-20T09:40:28;23.00;;;5.87;;
3949;SDS011;53057;50.988;6.314;2023-12-20T09:45:23;21.60;;;5.57;;
3949;SDS011;53057;50.988;6.314;2023-12-20T09:47:50;19.80;;;5.30;;
3949;SDS011;53057;50.988;6.314;2023-12-20T09:50:23;16.27;;;3.83;;
3949;SDS011;53057;50.988;6.314;2023-12-20T09:52:53;13.27;;;5.07;;
3949;SDS011;53057;50.988;6.314;2023-12-20T09:55:25;28.20;;;5.20;;
3949;SDS011;53057;50.988;6.314;2023-12-20T09:57:55;18.23;;;5.90;;
3949;SDS011;53057;50.988;6.314;2023-12-20T10:00:24;16.90;;;4.83;;
3949;SDS011;53057;50.988;6.314;2023-12-20T10:05:18;23.27;;;4.93;;
3949;SDS011;53057;50.988;6.314;2023-12-20T10:07:49;16.43;;;5.37;;
3949;SDS011;53057;50.988;6.314;2023-12-20T10:10:19;21.00;;;6.23;;
3949;SDS011;53057;50.988;6.314;2023-12-20T10:13:02;13.50;;;3.93;;
3949;SDS011;53057;50.988;6.314;2023-12-20T10:15:32;21.60;;;5.63;;
3949;SDS011;53057;50.988;6.314;2023-12-20T10:18:00;12.93;;;4.10;;
3949;SDS011;53057;50.988;6.314;2023-12-20T10:20:31;21.57;;;6.23;;
3949;SDS011;53057;50.988;6.314;2023-12-20T10:22:59;14.50;;;4.53;;
3949;SDS011;53057;50.988;6.314;2023-12-20T10:25:27;28.67;;;4.50;;
3949;SDS011;53057;50.988;6.314;2023-12-20T10:28:14;9.20;;;3.30;;
3949;SDS011;53057;50.988;6.314;2023-12-20T10:30:45;18.87;;;5.10;;
3949;SDS011;53057;50.988;6.314;2023-12-20T10:33:12;11.13;;;4.23;;
3949;SDS011;53057;50.988;6.314;2023-12-20T10:35:40;15.23;;;4.57;;
3949;SDS011;53057;50.988;6.314;2023-12-20T10:38:12;14.43;;;4.30;;
3949;SDS011;53057;50.988;6.314;2023-12-20T10:40:41;15.60;;;4.10;;
3949;SDS011;53057;50.988;6.314;2023-12-20T10:43:08;9.57;;;4.13;;
3949;SDS011;53057;50.988;6.314;2023-12-20T10:45:36;19.07;;;4.60;;
3949;SDS011;53057;50.988;6.314;2023-12-20T10:48:03;21.40;;;4.27;;
3949;SDS011;53057;50.988;6.314;2023-12-20T10:50:33;10.60;;;4.17;;
3949;SDS011;53057;50.988;6.314;2023-12-20T10:53:09;19.50;;;4.90;;
3949;SDS011;53057;50.988;6.314;2023-12-20T10:55:36;8.17;;;3.10;;
3949;SDS011;53057;50.988;6.314;2023-12-20T10:58:08;14.63;;;4.10;;
3949;SDS011;53057;50.988;6.314;2023-12-20T11:00:40;17.80;;;4.90;;
3949;SDS011;53057;50.988;6.314;2023-12-20T11:03:12;21.73;;;5.43;;
3949;SDS011;53057;50.988;6.314;2023-12-20T11:05:46;16.40;;;4.20;;
3949;SDS011;53057;50.988;6.314;2023-12-20T11:08:32;16.53;;;4.00;;
3949;SDS011;53057;50.988;6.314;2023-12-20T11:13:31;17.73;;;4.27;;
3949;SDS011;53057;50.988;6.314;2023-12-20T11:15:59;28.90;;;6.17;;
3949;SDS011;53057;50.988;6.314;2023-12-20T11:18:30;23.57;;;3.83;;
3949;SDS011;53057;50.988;6.314;2023-12-20T11:21:01;13.47;;;3.07;;
3949;SDS011;53057;50.988;6.314;2023-12-20T11:23:30;20.03;;;6.20;;
3949;SDS011;53057;50.988;6.314;2023-12-20T11:26:01;6.73;;;3.63;;
3949;SDS011;53057;50.988;6.314;2023-12-20T11:28:32;21.03;;;5.00;;
3949;SDS011;53057;50.988;6.314;2023-12-20T11:31:00;18.97;;;4.70;;
3949;SDS011;53057;50.988;6.314;2023-12-20T11:33:35;24.47;;;5.33;;
3949;SDS011;53057;50.988;6.314;2023-12-20T11:36:02;22.63;;;6.57;;
3949;SDS011;53057;50.988;6.314;2023-12-20T11:38:38;18.57;;;4.37;;
3949;SDS011;53057;50.988;6.314;2023-12-20T11:41:15;17.80;;;5.30;;
3949;SDS011;53057;50.988;6.314;2023-12-20T11:43:42;15.60;;;5.80;;
3949;SDS011;53057;50.988;6.314;2023-12-20T11:46:09;29.03;;;5.70;;
3949;SDS011;53057;50.988;6.314;2023-12-20T11:48:37;19.17;;;5.30;;
3949;SDS011;53057;50.988;6.314;2023-12-20T11:51:10;14.27;;;5.60;;
3949;SDS011;53057;50.988;6.314;2023-12-20T11:53:38;23.13;;;6.70;;
3949;SDS011;53057;50.988;6.314;2023-12-20T11:56:05;17.17;;;5.50;;
3949;SDS011;53057;50.988;6.314;2023-12-20T11:58:33;21.53;;;6.10;;
3949;SDS011;53057;50.988;6.314;2023-12-20T12:01:00;14.20;;;3.70;;
3949;SDS011;53057;50.988;6.314;2023-12-20T12:03:29;26.00;;;7.90;;
3949;SDS011;53057;50.988;6.314;2023-12-20T12:05:56;13.97;;;5.50;;
3949;SDS011;53057;50.988;6.314;2023-12-20T12:08:25;11.50;;;5.00;;
3949;SDS011;53057;50.988;6.314;2023-12-20T12:10:52;14.23;;;4.83;;
3949;SDS011;53057;50.988;6.314;2023-12-20T12:13:19;10.93;;;4.87;;
3949;SDS011;53057;50.988;6.314;2023-12-20T12:15:47;20.23;;;6.00;;
3949;SDS011;53057;50.988;6.314;2023-12-20T12:18:17;29.93;;;6.17;;
3949;SDS011;53057;50.988;6.314;2023-12-20T12:20:45;26.73;;;6.07;;
3949;SDS011;53057;50.988;6.314;2023-12-20T12:23:22;21.37;;;6.37;;
3949;SDS011;53057;50.988;6.314;2023-12-20T12:25:56;16.67;;;4.70;;
3949;SDS011;53057;50.988;6.314;2023-12-20T12:28:27;25.50;;;6.13;;
3949;SDS011;53057;50.988;6.314;2023-12-20T12:30:58;13.90;;;5.10;;
3949;SDS011;53057;50.988;6.314;2023-12-20T12:33:25;17.60;;;5.33;;
3949;SDS011;53057;50.988;6.314;2023-12-20T12:35:53;20.73;;;5.63;;
3949;SDS011;53057;50.988;6.314;2023-12-20T12:38:20;21.83;;;5.70;;
3949;SDS011;53057;50.988;6.314;2023-12-20T12:40:48;13.97;;;5.27;;
3949;SDS011;53057;50.988;6.314;2023-12-20T12:43:17;23.10;;;6.20;;
3949;SDS011;53057;50.988;6.314;2023-12-20T12:45:50;16.90;;;6.70;;
3949;SDS011;53057;50.988;6.314;2023-12-20T12:48:18;19.60;;;6.50;;
3949;SDS011;53057;50.988;6.314;2023-12-20T12:50:46;14.03;;;4.93;;
3949;SDS011;53057;50.988;6.314;2023-12-20T12:53:13;19.53;;;6.43;;
3949;SDS011;53057;50.988;6.314;2023-12-20T12:55:41;13.80;;;5.50;;
3949;SDS011;53057;50.988;6.314;2023-12-20T12:58:07;31.70;;;6.93;;
3949;SDS011;53057;50.988;6.314;2023-12-20T13:00:34;22.77;;;7.37;;
3949;SDS011;53057;50.988;6.314;2023-12-20T13:03:01;24.90;;;6.70;;
3949;SDS011;53057;50.988;6.314;2023-12-20T13:05:29;18.73;;;6.77;;
3949;SDS011;53057;50.988;6.314;2023-12-20T13:08:09;17.20;;;5.77;;
3949;SDS011;53057;50.988;6.314;2023-12-20T13:10:38;26.43;;;6.00;;
3949;SDS011;53057;50.988;6.314;2023-12-20T13:13:05;18.33;;;5.90;;
3949;SDS011;53057;50.988;6.314;2023-12-20T13:15:32;15.40;;;6.33;;
3949;SDS011;53057;50.988;6.314;2023-12-20T13:18:00;27.73;;;7.50;;
3949;SDS011;53057;50.988;6.314;2023-12-20T13:20:27;17.40;;;7.00;;
3949;SDS011;53057;50.988;6.314;2023-12-20T13:22:57;19.50;;;6.80;;
3949;SDS011;53057;50.988;6.314;2023-12-20T13:25:24;13.57;;;5.20;;
3949;SDS011;53057;50.988;6.314;2023-12-20T13:27:52;22.13;;;8.33;;
3949;SDS011;53057;50.988;6.314;2023-12-20T13:30:27;36.57;;;8.20;;
3949;SDS011;53057;50.988;6.314;2023-12-20T13:32:55;20.50;;;6.73;;
3949;SDS011;53057;50.988;6.314;2023-12-20T13:35:22;14.03;;;3.80;;
3949;SDS011;53057;50.988;6.314;2023-12-20T13:37:49;17.07;;;7.30;;
3949;SDS011;53057;50.988;6.314;2023-12-20T13:40:19;19.23;;;5.97;;
3949;SDS011;53057;50.988;6.314;2023-12-20T13:42:47;12.47;;;6.00;;
3949;SDS011;53057;50.988;6.314;2023-12-20T13:45:15;15.40;;;4.33;;
3949;SDS011;53057;50.988;6.314;2023-12-20T13:47:42;18.30;;;6.00;;
3949;SDS011;53057;50.988;6.314;2023-12-20T13:50:10;13.73;;;5.47;;
3949;SDS011;53057;50.988;6.314;2023-12-20T13:52:38;10.90;;;5.73;;
3949;SDS011;53057;50.988;6.314;2023-12-20T13:55:05;20.60;;;6.83;;
3949;SDS011;53057;50.988;6.314;2023-12-20T13:57:37;12.13;;;4.87;;
3949;SDS011;53057;50.988;6.314;2023-12-20T14:00:23;11.90;;;5.93;;
3949;SDS011;53057;50.988;6.314;2023-12-20T14:02:50;21.20;;;6.20;;
3949;SDS011;53057;50.988;6.314;2023-12-20T14:05:17;23.07;;;6.03;;
3949;SDS011;53057;50.988;6.314;2023-12-20T14:07:45;7.57;;;4.27;;
3949;SDS011;53057;50.988;6.314;2023-12-20T14:10:13;25.00;;;5.60;;
3949;SDS011;53057;50.988;6.314;2023-12-20T14:12:43;10.00;;;4.03;;
3949;SDS011;53057;50.988;6.314;2023-12-20T14:15:11;12.10;;;4.07;;
3949;SDS011;53057;50.988;6.314;2023-12-20T14:17:42;15.97;;;6.37;;
3949;SDS011;53057;50.988;6.314;2023-12-20T14:20:09;13.90;;;5.03;;
3949;SDS011;53057;50.988;6.314;2023-12-20T14:22:41;21.60;;;5.30;;
3949;SDS011;53057;50.988;6.314;2023-12-20T14:25:14;19.33;;;5.23;;
3949;SDS011;53057;50.988;6.314;2023-12-20T14:27:41;11.77;;;5.73;;
3949;SDS011;53057;50.988;6.314;2023-12-20T14:30:13;14.97;;;6.50;;
3949;SDS011;53057;50.988;6.314;2023-12-20T14:32:42;17.20;;;4.50;;
3949;SDS011;53057;50.988;6.314;2023-12-20T14:35:09;20.47;;;6.10;;
3949;SDS011;53057;50.988;6.314;2023-12-20T14:37:36;19.87;;;5.60;;
3949;SDS011;53057;50.988;6.314;2023-12-20T14:40:06;13.43;;;4.37;;
3949;SDS011;53057;50.988;6.314;2023-12-20T14:42:49;15.63;;;6.13;;
3949;SDS011;53057;50.988;6.314;2023-12-20T14:45:17;24.90;;;6.80;;
3949;SDS011;53057;50.988;6.314;2023-12-20T14:47:44;17.67;;;5.40;;
3949;SDS011;53057;50.988;6.314;2023-12-20T14:50:12;21.10;;;6.10;;
3949;SDS011;53057;50.988;6.314;2023-12-20T14:52:47;11.00;;;4.73;;
3949;SDS011;53057;50.988;6.314;2023-12-20T14:55:14;15.07;;;4.90;;
3949;SDS011;53057;50.988;6.314;2023-12-20T14:57:46;17.03;;;6.47;;
3949;SDS011;53057;50.988;6.314;2023-12-20T15:00:14;13.77;;;4.50;;
3949;SDS011;53057;50.988;6.314;2023-12-20T15:02:43;18.10;;;6.53;;
3949;SDS011;53057;50.988;6.314;2023-12-20T15:05:11;17.23;;;6.63;;
3949;SDS011;53057;50.988;6.314;2023-12-20T15:07:38;20.70;;;5.43;;
3949;SDS011;53057;50.988;6.314;2023-12-20T15:10:08;18.20;;;7.80;;
3949;SDS011;53057;50.988;6.314;2023-12-20T15:12:39;37.53;;;7.97;;
3949;SDS011;53057;50.988;6.314;2023-12-20T15:15:06;20.63;;;7.33;;
3949;SDS011;53057;50.988;6.314;2023-12-20T15:17:36;14.93;;;7.03;;
3949;SDS011;53057;50.988;6.314;2023-12-20T15:20:05;14.27;;;5.33;;
3949;SDS011;53057;50.988;6.314;2023-12-20T15:22:32;27.17;;;6.33;;
3949;SDS011;53057;50.988;6.314;2023-12-20T15:25:08;24.50;;;6.10;;
3949;SDS011;53057;50.988;6.314;2023-12-20T15:27:35;17.77;;;6.40;;
3949;SDS011;53057;50.988;6.314;2023-12-20T15:30:05;38.53;;;7.47;;
3949;SDS011;53057;50.988;6.314;2023-12-20T15:32:39;24.60;;;7.23;;
3949;SDS011;53057;50.988;6.314;2023-12-20T15:35:07;9.40;;;4.97;;
3949;SDS011;53057;50.988;6.314;2023-12-20T15:37:34;13.70;;;6.23;;
3949;SDS011;53057;50.988;6.314;2023-12-20T15:40:01;18.37;;;6.07;;
3949;SDS011;53057;50.988;6.314;2023-12-20T15:42:31;11.27;;;7.00;;
3949;SDS011;53057;50.988;6.314;2023-12-20T15:44:58;16.90;;;6.47;;
3949;SDS011;53057;50.988;6.314;2023-12-20T15:47:27;17.07;;;6.67;;
3949;SDS011;53057;50.988;6.314;2023-12-20T15:49:54;23.63;;;7.57;;
3949;SDS011;53057;50.988;6.314;2023-12-20T15:52:21;19.93;;;6.90;;
3949;SDS011;53057;50.988;6.314;2023-12-20T15:54:48;19.30;;;7.47;;
3949;SDS011;53057;50.988;6.314;2023-12-20T15:57:16;20.93;;;6.70;;
3949;SDS011;53057;50.988;6.314;2023-12-20T15:59:43;14.00;;;7.33;;
3949;SDS011;53057;50.988;6.314;2023-12-20T16:02:10;18.63;;;7.17;;
3949;SDS011;53057;50.988;6.314;2023-12-20T16:04:43;25.93;;;8.53;;
3949;SDS011;53057;50.988;6.314;2023-12-20T16:07:10;27.40;;;5.87;;
3949;SDS011;53057;50.988;6.314;2023-12-20T16:09:37;21.23;;;6.00;;
3949;SDS011;53057;50.988;6.314;2023-12-20T16:12:05;17.03;;;6.87;;
3949;SDS011;53057;50.988;6.314;2023-12-20T16:14:55;24.53;;;6.77;;
3949;SDS011;53057;50.988;6.314;2023-12-20T16:17:33;19.67;;;7.00;;
3949;SDS011;53057;50.988;6.314;2023-12-20T16:20:08;23.70;;;7.17;;